sensor_id;sensor_type;location;lat;lon;timestamp;P1;durP1;ratioP1;P2;durP2;ratioP2
29236;SDS011;16266;50.866;4.398;2023-08-21T00:00:44;526.63;;;502.27;;
29236;SDS011;16266;50.866;4.398;2023-08-21T00:03:10;478.23;;;457.17;;
29236;SDS011;16266;50.866;4.398;2023-08-21T00:05:36;431.95;;;413.40;;
29236;SDS011;16266;50.866;4.398;2023-08-21T00:08:02;360.35;;;345.48;;
29236;SDS011;16266;50.866;4.398;2023-08-21T00:10:29;359.17;;;344.45;;
29236;SDS011;16266;50.866;4.398;2023-08-21T00:12:55;331.23;;;317.85;;
29236;SDS011;16266;50.866;4.398;2023-08-21T00:15:21;358.10;;;343.73;;
29236;SDS011;16266;50.866;4.398;2023-08-21T00:17:46;334.23;;;321.10;;
29236;SDS011;16266;50.866;4.398;2023-08-21T00:20:12;181.98;;;174.82;;
29236;SDS011;16266;50.866;4.398;2023-08-21T00:22:38;166.35;;;160.00;;
29236;SDS011;16266;50.866;4.398;2023-08-21T00:25:04;155.70;;;149.57;;
29236;SDS011;16266;50.866;4.398;2023-08-21T00:27:29;150.77;;;144.88;;
29236;SDS011;16266;50.866;4.398;2023-08-21T00:29:55;174.20;;;167.20;;
29236;SDS011;16266;50.866;4.398;2023-08-21T00:32:21;153.52;;;147.52;;
29236;SDS011;16266;50.866;4.398;2023-08-21T00:34:46;174.35;;;167.38;;
29236;SDS011;16266;50.866;4.398;2023-08-21T00:37:12;171.45;;;164.70;;
29236;SDS011;16266;50.866;4.398;2023-08-21T00:39:37;148.60;;;142.65;;
29236;SDS011;16266;50.866;4.398;2023-08-21T00:42:03;154.88;;;148.70;;
29236;SDS011;16266;50.866;4.398;2023-08-21T00:44:29;161.38;;;155.00;;
29236;SDS011;16266;50.866;4.398;2023-08-21T00:46:54;195.55;;;188.05;;
29236;SDS011;16266;50.866;4.398;2023-08-21T00:49:20;276.33;;;265.42;;
29236;SDS011;16266;50.866;4.398;2023-08-21T00:51:46;305.65;;;293.45;;
29236;SDS011;16266;50.866;4.398;2023-08-21T00:54:13;291.00;;;279.35;;
29236;SDS011;16266;50.866;4.398;2023-08-21T00:56:39;351.25;;;337.00;;
29236;SDS011;16266;50.866;4.398;2023-08-21T00:59:05;369.73;;;354.60;;
29236;SDS011;16266;50.866;4.398;2023-08-21T01:01:30;351.42;;;336.83;;
29236;SDS011;16266;50.866;4.398;2023-08-21T01:03:58;274.00;;;262.88;;
29236;SDS011;16266;50.866;4.398;2023-08-21T01:06:23;257.35;;;247.07;;
29236;SDS011;16266;50.866;4.398;2023-08-21T01:11:35;327.67;;;314.10;;
29236;SDS011;16266;50.866;4.398;2023-08-21T01:14:08;376.88;;;361.33;;
29236;SDS011;16266;50.866;4.398;2023-08-21T01:16:41;492.58;;;470.23;;
29236;SDS011;16266;50.866;4.398;2023-08-21T01:19:10;439.77;;;419.27;;
29236;SDS011;16266;50.866;4.398;2023-08-21T01:21:49;426.42;;;407.92;;
29236;SDS011;16266;50.866;4.398;2023-08-21T01:24:18;571.80;;;543.75;;
29236;SDS011;16266;50.866;4.398;2023-08-21T01:26:45;603.05;;;571.30;;
29236;SDS011;16266;50.866;4.398;2023-08-21T01:29:11;610.88;;;578.95;;
29236;SDS011;16266;50.866;4.398;2023-08-21T01:31:37;587.97;;;558.40;;
29236;SDS011;16266;50.866;4.398;2023-08-21T01:34:09;616.90;;;585.00;;
29236;SDS011;16266;50.866;4.398;2023-08-21T01:36:38;584.53;;;554.85;;
29236;SDS011;16266;50.866;4.398;2023-08-21T01:39:04;654.00;;;619.63;;
29236;SDS011;16266;50.866;4.398;2023-08-21T01:41:30;728.20;;;687.38;;
29236;SDS011;16266;50.866;4.398;2023-08-21T01:43:56;697.80;;;659.83;;
29236;SDS011;16266;50.866;4.398;2023-08-21T01:46:21;679.72;;;644.08;;
29236;SDS011;16266;50.866;4.398;2023-08-21T01:48:47;694.83;;;657.13;;
29236;SDS011;16266;50.866;4.398;2023-08-21T01:51:13;681.15;;;643.42;;
29236;SDS011;16266;50.866;4.398;2023-08-21T01:53:39;675.50;;;637.33;;
29236;SDS011;16266;50.866;4.398;2023-08-21T01:56:05;644.03;;;608.83;;
29236;SDS011;16266;50.866;4.398;2023-08-21T01:58:31;608.90;;;576.92;;
29236;SDS011;16266;50.866;4.398;2023-08-21T02:00:56;619.40;;;586.75;;
29236;SDS011;16266;50.866;4.398;2023-08-21T02:03:24;642.13;;;608.13;;
29236;SDS011;16266;50.866;4.398;2023-08-21T02:05:54;636.30;;;602.83;;
29236;SDS011;16266;50.866;4.398;2023-08-21T02:08:30;592.72;;;562.25;;
29236;SDS011;16266;50.866;4.398;2023-08-21T02:11:00;556.50;;;528.60;;
29236;SDS011;16266;50.866;4.398;2023-08-21T02:13:25;575.55;;;546.88;;
29236;SDS011;16266;50.866;4.398;2023-08-21T02:15:51;572.80;;;543.92;;
29236;SDS011;16266;50.866;4.398;2023-08-21T02:18:17;564.28;;;536.00;;
29236;SDS011;16266;50.866;4.398;2023-08-21T02:20:42;533.92;;;507.92;;
29236;SDS011;16266;50.866;4.398;2023-08-21T02:23:08;554.65;;;527.33;;
29236;SDS011;16266;50.866;4.398;2023-08-21T02:25:34;563.35;;;535.25;;
29236;SDS011;16266;50.866;4.398;2023-08-21T02:28:00;536.72;;;510.50;;
29236;SDS011;16266;50.866;4.398;2023-08-21T02:30:27;537.10;;;511.73;;
29236;SDS011;16266;50.866;4.398;2023-08-21T02:32:53;486.77;;;464.15;;
29236;SDS011;16266;50.866;4.398;2023-08-21T02:35:19;452.42;;;431.92;;
29236;SDS011;16266;50.866;4.398;2023-08-21T02:37:45;486.77;;;464.02;;
29236;SDS011;16266;50.866;4.398;2023-08-21T02:40:11;525.92;;;500.70;;
29236;SDS011;16266;50.866;4.398;2023-08-21T02:42:37;561.38;;;532.88;;
29236;SDS011;16266;50.866;4.398;2023-08-21T02:45:03;543.78;;;517.80;;
29236;SDS011;16266;50.866;4.398;2023-08-21T02:47:34;518.88;;;493.85;;
29236;SDS011;16266;50.866;4.398;2023-08-21T02:50:07;566.80;;;538.42;;
29236;SDS011;16266;50.866;4.398;2023-08-21T02:52:34;654.00;;;619.42;;
29236;SDS011;16266;50.866;4.398;2023-08-21T02:55:00;643.70;;;609.97;;
29236;SDS011;16266;50.866;4.398;2023-08-21T02:57:26;661.00;;;625.03;;
29236;SDS011;16266;50.866;4.398;2023-08-21T02:59:52;659.45;;;623.38;;
29236;SDS011;16266;50.866;4.398;2023-08-21T03:02:18;585.55;;;555.22;;
29236;SDS011;16266;50.866;4.398;2023-08-21T03:04:44;577.55;;;548.47;;
29236;SDS011;16266;50.866;4.398;2023-08-21T03:07:10;588.20;;;558.13;;
29236;SDS011;16266;50.866;4.398;2023-08-21T03:09:39;609.63;;;578.05;;
29236;SDS011;16266;50.866;4.398;2023-08-21T03:12:06;598.95;;;568.15;;
29236;SDS011;16266;50.866;4.398;2023-08-21T03:14:32;556.92;;;528.17;;
29236;SDS011;16266;50.866;4.398;2023-08-21T03:16:58;656.42;;;619.58;;
29236;SDS011;16266;50.866;4.398;2023-08-21T03:19:23;645.78;;;610.05;;
29236;SDS011;16266;50.866;4.398;2023-08-21T03:21:49;649.08;;;613.85;;
29236;SDS011;16266;50.866;4.398;2023-08-21T03:24:15;647.42;;;612.92;;
29236;SDS011;16266;50.866;4.398;2023-08-21T03:26:40;662.38;;;626.80;;
29236;SDS011;16266;50.866;4.398;2023-08-21T03:29:06;709.08;;;669.63;;
29236;SDS011;16266;50.866;4.398;2023-08-21T03:31:31;697.90;;;658.63;;
29236;SDS011;16266;50.866;4.398;2023-08-21T03:33:57;714.75;;;674.88;;
29236;SDS011;16266;50.866;4.398;2023-08-21T03:36:23;708.35;;;668.30;;
29236;SDS011;16266;50.866;4.398;2023-08-21T03:38:59;705.03;;;665.25;;
29236;SDS011;16266;50.866;4.398;2023-08-21T03:41:29;704.58;;;664.90;;
29236;SDS011;16266;50.866;4.398;2023-08-21T03:43:54;712.25;;;672.17;;
29236;SDS011;16266;50.866;4.398;2023-08-21T03:46:20;713.30;;;672.92;;
29236;SDS011;16266;50.866;4.398;2023-08-21T03:48:47;718.35;;;677.63;;
29236;SDS011;16266;50.866;4.398;2023-08-21T03:51:12;711.92;;;672.13;;
29236;SDS011;16266;50.866;4.398;2023-08-21T03:53:38;705.30;;;665.53;;
29236;SDS011;16266;50.866;4.398;2023-08-21T03:56:04;685.50;;;647.13;;
29236;SDS011;16266;50.866;4.398;2023-08-21T03:58:31;668.50;;;631.63;;
29236;SDS011;16266;50.866;4.398;2023-08-21T04:00:57;607.33;;;574.67;;
29236;SDS011;16266;50.866;4.398;2023-08-21T04:03:23;583.17;;;551.80;;
29236;SDS011;16266;50.866;4.398;2023-08-21T04:05:52;852.92;;;793.10;;
29236;SDS011;16266;50.866;4.398;2023-08-21T04:08:20;613.22;;;580.10;;
29236;SDS011;16266;50.866;4.398;2023-08-21T04:10:45;669.90;;;632.40;;
29236;SDS011;16266;50.866;4.398;2023-08-21T04:13:11;784.67;;;734.97;;
29236;SDS011;16266;50.866;4.398;2023-08-21T04:15:36;709.90;;;669.55;;
29236;SDS011;16266;50.866;4.398;2023-08-21T04:18:02;703.90;;;663.90;;
29236;SDS011;16266;50.866;4.398;2023-08-21T04:20:28;727.17;;;685.38;;
29236;SDS011;16266;50.866;4.398;2023-08-21T04:22:54;722.85;;;681.25;;
29236;SDS011;16266;50.866;4.398;2023-08-21T04:25:20;676.08;;;637.78;;
29236;SDS011;16266;50.866;4.398;2023-08-21T04:27:45;587.53;;;556.00;;
29236;SDS011;16266;50.866;4.398;2023-08-21T04:30:11;604.17;;;571.08;;
29236;SDS011;16266;50.866;4.398;2023-08-21T04:32:37;476.58;;;452.17;;
29236;SDS011;16266;50.866;4.398;2023-08-21T04:35:03;412.95;;;391.77;;
29236;SDS011;16266;50.866;4.398;2023-08-21T04:37:30;443.25;;;421.00;;
29236;SDS011;16266;50.866;4.398;2023-08-21T04:39:57;449.50;;;426.63;;
29236;SDS011;16266;50.866;4.398;2023-08-21T04:42:23;386.85;;;367.55;;
29236;SDS011;16266;50.866;4.398;2023-08-21T04:44:49;279.58;;;266.63;;
29236;SDS011;16266;50.866;4.398;2023-08-21T04:47:33;465.08;;;442.83;;
29236;SDS011;16266;50.866;4.398;2023-08-21T04:49:58;398.48;;;381.60;;
29236;SDS011;16266;50.866;4.398;2023-08-21T04:52:24;406.20;;;388.90;;
29236;SDS011;16266;50.866;4.398;2023-08-21T04:54:50;322.40;;;308.67;;
29236;SDS011;16266;50.866;4.398;2023-08-21T04:57:17;284.38;;;272.38;;
29236;SDS011;16266;50.866;4.398;2023-08-21T04:59:46;291.77;;;278.60;;
29236;SDS011;16266;50.866;4.398;2023-08-21T05:02:13;507.38;;;481.42;;
29236;SDS011;16266;50.866;4.398;2023-08-21T05:04:39;602.40;;;571.08;;
29236;SDS011;16266;50.866;4.398;2023-08-21T05:07:05;734.47;;;692.80;;
29236;SDS011;16266;50.866;4.398;2023-08-21T05:09:31;761.92;;;717.25;;
29236;SDS011;16266;50.866;4.398;2023-08-21T05:11:57;751.40;;;708.47;;
29236;SDS011;16266;50.866;4.398;2023-08-21T05:14:22;716.28;;;678.88;;
29236;SDS011;16266;50.866;4.398;2023-08-21T05:16:48;796.38;;;749.05;;
29236;SDS011;16266;50.866;4.398;2023-08-21T05:19:15;790.45;;;743.63;;
29236;SDS011;16266;50.866;4.398;2023-08-21T05:21:41;567.97;;;539.95;;
29236;SDS011;16266;50.866;4.398;2023-08-21T05:24:07;462.40;;;442.13;;
29236;SDS011;16266;50.866;4.398;2023-08-21T05:26:35;570.03;;;541.42;;
29236;SDS011;16266;50.866;4.398;2023-08-21T05:29:01;385.80;;;368.73;;
29236;SDS011;16266;50.866;4.398;2023-08-21T05:31:27;381.30;;;365.38;;
29236;SDS011;16266;50.866;4.398;2023-08-21T05:33:52;197.95;;;189.88;;
29236;SDS011;16266;50.866;4.398;2023-08-21T05:36:18;189.15;;;181.40;;
29236;SDS011;16266;50.866;4.398;2023-08-21T05:38:44;166.27;;;159.23;;
29236;SDS011;16266;50.866;4.398;2023-08-21T05:41:09;290.88;;;278.10;;
29236;SDS011;16266;50.866;4.398;2023-08-21T05:43:35;137.93;;;132.50;;
29236;SDS011;16266;50.866;4.398;2023-08-21T05:46:01;194.10;;;186.68;;
29236;SDS011;16266;50.866;4.398;2023-08-21T05:48:26;256.48;;;245.93;;
29236;SDS011;16266;50.866;4.398;2023-08-21T05:50:52;77.00;;;74.18;;
29236;SDS011;16266;50.866;4.398;2023-08-21T05:53:18;34.05;;;32.85;;
29236;SDS011;16266;50.866;4.398;2023-08-21T05:55:44;37.17;;;35.80;;
29236;SDS011;16266;50.866;4.398;2023-08-21T05:58:10;24.13;;;23.13;;
29236;SDS011;16266;50.866;4.398;2023-08-21T06:00:37;24.70;;;23.45;;
29236;SDS011;16266;50.866;4.398;2023-08-21T06:03:04;25.10;;;24.23;;
29236;SDS011;16266;50.866;4.398;2023-08-21T06:05:30;21.20;;;20.15;;
29236;SDS011;16266;50.866;4.398;2023-08-21T06:07:55;17.70;;;16.83;;
29236;SDS011;16266;50.866;4.398;2023-08-21T06:10:21;18.55;;;17.85;;
29236;SDS011;16266;50.866;4.398;2023-08-21T06:12:47;18.60;;;17.70;;
29236;SDS011;16266;50.866;4.398;2023-08-21T06:15:13;16.15;;;15.65;;
29236;SDS011;16266;50.866;4.398;2023-08-21T06:17:39;23.95;;;23.05;;
29236;SDS011;16266;50.866;4.398;2023-08-21T06:20:07;18.67;;;17.50;;
29236;SDS011;16266;50.866;4.398;2023-08-21T06:22:37;15.98;;;15.48;;
29236;SDS011;16266;50.866;4.398;2023-08-21T06:25:03;14.73;;;14.23;;
29236;SDS011;16266;50.866;4.398;2023-08-21T06:27:29;16.70;;;16.08;;
29236;SDS011;16266;50.866;4.398;2023-08-21T06:29:55;18.52;;;17.83;;
29236;SDS011;16266;50.866;4.398;2023-08-21T06:32:21;17.27;;;16.58;;
29236;SDS011;16266;50.866;4.398;2023-08-21T06:34:46;19.55;;;18.80;;
29236;SDS011;16266;50.866;4.398;2023-08-21T06:37:12;17.90;;;17.30;;
29236;SDS011;16266;50.866;4.398;2023-08-21T06:39:38;17.90;;;17.27;;
29236;SDS011;16266;50.866;4.398;2023-08-21T06:42:03;18.80;;;17.95;;
29236;SDS011;16266;50.866;4.398;2023-08-21T06:44:29;15.95;;;15.27;;
29236;SDS011;16266;50.866;4.398;2023-08-21T06:46:55;16.38;;;15.77;;
29236;SDS011;16266;50.866;4.398;2023-08-21T06:49:20;20.05;;;19.25;;
29236;SDS011;16266;50.866;4.398;2023-08-21T06:51:46;21.48;;;20.67;;
29236;SDS011;16266;50.866;4.398;2023-08-21T06:54:12;18.98;;;18.35;;
29236;SDS011;16266;50.866;4.398;2023-08-21T06:56:38;19.50;;;18.80;;
29236;SDS011;16266;50.866;4.398;2023-08-21T06:59:04;15.93;;;15.27;;
29236;SDS011;16266;50.866;4.398;2023-08-21T07:01:30;16.77;;;16.15;;
29236;SDS011;16266;50.866;4.398;2023-08-21T07:03:55;15.32;;;14.82;;
29236;SDS011;16266;50.866;4.398;2023-08-21T07:06:21;16.73;;;16.13;;
29236;SDS011;16266;50.866;4.398;2023-08-21T07:08:47;17.40;;;16.80;;
29236;SDS011;16266;50.866;4.398;2023-08-21T07:11:16;16.35;;;15.75;;
29236;SDS011;16266;50.866;4.398;2023-08-21T07:13:42;16.83;;;16.15;;
29236;SDS011;16266;50.866;4.398;2023-08-21T07:16:08;16.30;;;15.50;;
29236;SDS011;16266;50.866;4.398;2023-08-21T07:18:34;16.58;;;16.00;;
29236;SDS011;16266;50.866;4.398;2023-08-21T07:21:00;17.45;;;16.13;;
29236;SDS011;16266;50.866;4.398;2023-08-21T07:23:28;16.40;;;15.80;;
29236;SDS011;16266;50.866;4.398;2023-08-21T07:25:54;16.67;;;16.15;;
29236;SDS011;16266;50.866;4.398;2023-08-21T07:28:20;20.20;;;18.50;;
29236;SDS011;16266;50.866;4.398;2023-08-21T07:30:45;19.40;;;18.70;;
29236;SDS011;16266;50.866;4.398;2023-08-21T07:33:11;18.13;;;17.52;;
29236;SDS011;16266;50.866;4.398;2023-08-21T07:35:37;17.55;;;16.52;;
29236;SDS011;16266;50.866;4.398;2023-08-21T07:38:02;17.45;;;16.85;;
29236;SDS011;16266;50.866;4.398;2023-08-21T07:40:28;16.02;;;15.32;;
29236;SDS011;16266;50.866;4.398;2023-08-21T07:42:55;16.52;;;15.82;;
29236;SDS011;16266;50.866;4.398;2023-08-21T07:45:20;16.00;;;15.50;;
29236;SDS011;16266;50.866;4.398;2023-08-21T07:47:46;15.90;;;15.40;;
29236;SDS011;16266;50.866;4.398;2023-08-21T07:50:12;16.67;;;16.08;;
29236;SDS011;16266;50.866;4.398;2023-08-21T07:52:39;15.88;;;15.27;;
29236;SDS011;16266;50.866;4.398;2023-08-21T07:55:05;17.85;;;17.15;;
29236;SDS011;16266;50.866;4.398;2023-08-21T07:57:31;15.00;;;14.50;;
29236;SDS011;16266;50.866;4.398;2023-08-21T07:59:57;16.40;;;15.48;;
29236;SDS011;16266;50.866;4.398;2023-08-21T08:02:22;15.30;;;14.80;;
29236;SDS011;16266;50.866;4.398;2023-08-21T08:04:48;17.60;;;16.55;;
29236;SDS011;16266;50.866;4.398;2023-08-21T08:07:14;16.52;;;15.93;;
29236;SDS011;16266;50.866;4.398;2023-08-21T08:09:41;16.13;;;15.43;;
29236;SDS011;16266;50.866;4.398;2023-08-21T08:12:06;16.80;;;16.20;;
29236;SDS011;16266;50.866;4.398;2023-08-21T08:14:32;17.80;;;17.10;;
29236;SDS011;16266;50.866;4.398;2023-08-21T08:16:58;16.80;;;16.27;;
29236;SDS011;16266;50.866;4.398;2023-08-21T08:19:23;19.38;;;18.02;;
29236;SDS011;16266;50.866;4.398;2023-08-21T08:21:49;18.92;;;18.23;;
29236;SDS011;16266;50.866;4.398;2023-08-21T08:24:15;17.63;;;16.60;;
29236;SDS011;16266;50.866;4.398;2023-08-21T08:26:40;18.42;;;17.83;;
29236;SDS011;16266;50.866;4.398;2023-08-21T08:29:08;20.45;;;19.75;;
29236;SDS011;16266;50.866;4.398;2023-08-21T08:31:33;18.05;;;17.27;;
29236;SDS011;16266;50.866;4.398;2023-08-21T08:33:59;17.30;;;16.38;;
29236;SDS011;16266;50.866;4.398;2023-08-21T08:36:25;18.65;;;17.63;;
29236;SDS011;16266;50.866;4.398;2023-08-21T08:38:51;20.52;;;19.08;;
29236;SDS011;16266;50.866;4.398;2023-08-21T08:41:30;17.27;;;16.67;;
29236;SDS011;16266;50.866;4.398;2023-08-21T08:44:03;19.55;;;18.63;;
29236;SDS011;16266;50.866;4.398;2023-08-21T08:46:30;19.10;;;18.40;;
29236;SDS011;16266;50.866;4.398;2023-08-21T08:49:04;18.92;;;18.02;;
29236;SDS011;16266;50.866;4.398;2023-08-21T08:51:30;16.70;;;16.10;;
29236;SDS011;16266;50.866;4.398;2023-08-21T08:53:59;17.38;;;16.77;;
29236;SDS011;16266;50.866;4.398;2023-08-21T08:56:25;19.38;;;18.58;;
29236;SDS011;16266;50.866;4.398;2023-08-21T08:58:51;17.05;;;16.45;;
29236;SDS011;16266;50.866;4.398;2023-08-21T09:01:17;16.98;;;16.08;;
29236;SDS011;16266;50.866;4.398;2023-08-21T09:03:44;20.20;;;19.40;;
29236;SDS011;16266;50.866;4.398;2023-08-21T09:06:10;18.50;;;17.80;;
29236;SDS011;16266;50.866;4.398;2023-08-21T09:08:36;17.95;;;17.35;;
29236;SDS011;16266;50.866;4.398;2023-08-21T09:11:02;19.45;;;18.77;;
29236;SDS011;16266;50.866;4.398;2023-08-21T09:15:56;16.75;;;16.05;;
29236;SDS011;16266;50.866;4.398;2023-08-21T09:18:21;16.42;;;15.82;;
29236;SDS011;16266;50.866;4.398;2023-08-21T09:20:48;18.58;;;17.80;;
29236;SDS011;16266;50.866;4.398;2023-08-21T09:23:14;18.35;;;17.20;;
29236;SDS011;16266;50.866;4.398;2023-08-21T09:25:41;16.93;;;16.33;;
29236;SDS011;16266;50.866;4.398;2023-08-21T09:28:11;17.85;;;17.25;;
29236;SDS011;16266;50.866;4.398;2023-08-21T09:30:47;17.60;;;17.00;;
29236;SDS011;16266;50.866;4.398;2023-08-21T09:33:18;18.83;;;17.63;;
29236;SDS011;16266;50.866;4.398;2023-08-21T09:35:44;15.57;;;14.97;;
29236;SDS011;16266;50.866;4.398;2023-08-21T09:38:10;19.08;;;18.27;;
29236;SDS011;16266;50.866;4.398;2023-08-21T09:40:43;17.33;;;16.70;;
29236;SDS011;16266;50.866;4.398;2023-08-21T09:43:18;14.68;;;14.18;;
29236;SDS011;16266;50.866;4.398;2023-08-21T09:45:49;18.20;;;17.52;;
29236;SDS011;16266;50.866;4.398;2023-08-21T09:48:26;18.73;;;17.92;;
29236;SDS011;16266;50.866;4.398;2023-08-21T09:50:52;17.48;;;16.77;;
29236;SDS011;16266;50.866;4.398;2023-08-21T09:53:20;16.48;;;15.88;;
29236;SDS011;16266;50.866;4.398;2023-08-21T09:55:47;15.98;;;15.48;;
29236;SDS011;16266;50.866;4.398;2023-08-21T09:58:17;16.35;;;15.77;;
29236;SDS011;16266;50.866;4.398;2023-08-21T10:00:44;17.00;;;16.38;;
29236;SDS011;16266;50.866;4.398;2023-08-21T10:03:13;17.05;;;16.45;;
29236;SDS011;16266;50.866;4.398;2023-08-21T10:05:44;16.25;;;15.65;;
29236;SDS011;16266;50.866;4.398;2023-08-21T10:08:12;19.23;;;18.52;;
29236;SDS011;16266;50.866;4.398;2023-08-21T10:10:46;15.43;;;14.93;;
29236;SDS011;16266;50.866;4.398;2023-08-21T10:13:11;17.30;;;16.70;;
29236;SDS011;16266;50.866;4.398;2023-08-21T10:15:37;15.13;;;14.63;;
29236;SDS011;16266;50.866;4.398;2023-08-21T10:21:11;16.65;;;15.95;;
29236;SDS011;16266;50.866;4.398;2023-08-21T10:23:39;14.48;;;13.85;;
29236;SDS011;16266;50.866;4.398;2023-08-21T10:26:07;17.77;;;16.83;;
29236;SDS011;16266;50.866;4.398;2023-08-21T10:28:48;16.17;;;15.52;;
29236;SDS011;16266;50.866;4.398;2023-08-21T10:33:53;16.33;;;15.77;;
29236;SDS011;16266;50.866;4.398;2023-08-21T10:36:37;15.80;;;15.30;;
29236;SDS011;16266;50.866;4.398;2023-08-21T10:39:03;17.52;;;16.85;;
29236;SDS011;16266;50.866;4.398;2023-08-21T10:41:37;16.63;;;15.93;;
29236;SDS011;16266;50.866;4.398;2023-08-21T10:44:02;17.08;;;16.38;;
29236;SDS011;16266;50.866;4.398;2023-08-21T10:46:49;16.33;;;15.73;;
29236;SDS011;16266;50.866;4.398;2023-08-21T10:49:15;17.30;;;16.70;;
29236;SDS011;16266;50.866;4.398;2023-08-21T10:51:41;17.63;;;17.02;;
29236;SDS011;16266;50.866;4.398;2023-08-21T10:54:14;16.83;;;16.27;;
29236;SDS011;16266;50.866;4.398;2023-08-21T10:56:40;17.30;;;16.70;;
29236;SDS011;16266;50.866;4.398;2023-08-21T10:59:06;16.92;;;16.33;;
29236;SDS011;16266;50.866;4.398;2023-08-21T11:01:44;16.67;;;16.08;;
29236;SDS011;16266;50.866;4.398;2023-08-21T11:04:10;17.55;;;16.95;;
29236;SDS011;16266;50.866;4.398;2023-08-21T11:06:39;17.48;;;16.88;;
29236;SDS011;16266;50.866;4.398;2023-08-21T11:09:05;16.35;;;15.85;;
29236;SDS011;16266;50.866;4.398;2023-08-21T11:11:38;15.93;;;15.38;;
29236;SDS011;16266;50.866;4.398;2023-08-21T11:14:03;17.73;;;17.13;;
29236;SDS011;16266;50.866;4.398;2023-08-21T11:16:30;18.20;;;17.60;;
29236;SDS011;16266;50.866;4.398;2023-08-21T11:18:55;15.95;;;15.35;;
29236;SDS011;16266;50.866;4.398;2023-08-21T11:21:22;17.98;;;17.38;;
29236;SDS011;16266;50.866;4.398;2023-08-21T11:26:15;15.48;;;14.98;;
29236;SDS011;16266;50.866;4.398;2023-08-21T11:28:41;16.33;;;15.73;;
29236;SDS011;16266;50.866;4.398;2023-08-21T11:31:07;17.60;;;17.00;;
29236;SDS011;16266;50.866;4.398;2023-08-21T11:33:36;16.10;;;15.60;;
29236;SDS011;16266;50.866;4.398;2023-08-21T11:36:04;15.43;;;14.93;;
29236;SDS011;16266;50.866;4.398;2023-08-21T11:38:30;16.00;;;15.30;;
29236;SDS011;16266;50.866;4.398;2023-08-21T11:41:02;15.73;;;14.90;;
29236;SDS011;16266;50.866;4.398;2023-08-21T11:43:34;15.50;;;15.00;;
29236;SDS011;16266;50.866;4.398;2023-08-21T11:46:04;18.17;;;17.58;;
29236;SDS011;16266;50.866;4.398;2023-08-21T11:48:31;16.30;;;15.80;;
29236;SDS011;16266;50.866;4.398;2023-08-21T11:50:57;17.17;;;16.58;;
29236;SDS011;16266;50.866;4.398;2023-08-21T11:53:56;17.05;;;16.45;;
29236;SDS011;16266;50.866;4.398;2023-08-21T11:56:17;15.95;;;15.35;;
29236;SDS011;16266;50.866;4.398;2023-08-21T11:58:43;17.70;;;17.10;;
29236;SDS011;16266;50.866;4.398;2023-08-21T12:01:15;18.42;;;17.63;;
29236;SDS011;16266;50.866;4.398;2023-08-21T12:03:43;16.98;;;16.02;;
29236;SDS011;16266;50.866;4.398;2023-08-21T12:06:09;18.33;;;17.73;;
29236;SDS011;16266;50.866;4.398;2023-08-21T12:08:36;16.80;;;16.00;;
29236;SDS011;16266;50.866;4.398;2023-08-21T12:11:02;16.58;;;16.00;;
29236;SDS011;16266;50.866;4.398;2023-08-21T12:13:28;15.75;;;15.20;;
29236;SDS011;16266;50.866;4.398;2023-08-21T12:15:54;16.50;;;16.00;;
29236;SDS011;16266;50.866;4.398;2023-08-21T12:18:20;14.45;;;13.85;;
29236;SDS011;16266;50.866;4.398;2023-08-21T12:20:46;17.80;;;17.20;;
29236;SDS011;16266;50.866;4.398;2023-08-21T12:23:12;17.38;;;16.77;;
29236;SDS011;16266;50.866;4.398;2023-08-21T12:25:37;17.42;;;16.83;;
29236;SDS011;16266;50.866;4.398;2023-08-21T12:28:03;15.43;;;14.93;;
29236;SDS011;16266;50.866;4.398;2023-08-21T12:30:30;15.43;;;14.93;;
29236;SDS011;16266;50.866;4.398;2023-08-21T12:32:56;15.20;;;14.70;;
29236;SDS011;16266;50.866;4.398;2023-08-21T12:35:22;15.85;;;15.35;;
29236;SDS011;16266;50.866;4.398;2023-08-21T12:37:47;17.52;;;16.92;;
29236;SDS011;16266;50.866;4.398;2023-08-21T12:40:13;16.73;;;16.23;;
29236;SDS011;16266;50.866;4.398;2023-08-21T12:42:39;18.77;;;18.15;;
29236;SDS011;16266;50.866;4.398;2023-08-21T12:45:04;17.58;;;16.98;;
29236;SDS011;16266;50.866;4.398;2023-08-21T12:47:30;16.02;;;15.52;;
29236;SDS011;16266;50.866;4.398;2023-08-21T12:49:56;15.32;;;14.82;;
29236;SDS011;16266;50.866;4.398;2023-08-21T12:52:22;20.88;;;20.17;;
29236;SDS011;16266;50.866;4.398;2023-08-21T12:54:47;20.65;;;19.95;;
29236;SDS011;16266;50.866;4.398;2023-08-21T12:57:13;20.95;;;20.13;;
29236;SDS011;16266;50.866;4.398;2023-08-21T12:59:39;19.38;;;18.67;;
29236;SDS011;16266;50.866;4.398;2023-08-21T13:02:04;18.70;;;18.10;;
29236;SDS011;16266;50.866;4.398;2023-08-21T13:04:30;21.05;;;19.83;;
29236;SDS011;16266;50.866;4.398;2023-08-21T13:06:56;20.33;;;19.63;;
29236;SDS011;16266;50.866;4.398;2023-08-21T13:09:22;20.98;;;20.17;;
29236;SDS011;16266;50.866;4.398;2023-08-21T13:11:51;17.23;;;16.63;;
29236;SDS011;16266;50.866;4.398;2023-08-21T13:14:17;25.77;;;24.90;;
29236;SDS011;16266;50.866;4.398;2023-08-21T13:16:42;25.45;;;24.63;;
29236;SDS011;16266;50.866;4.398;2023-08-21T13:19:08;27.50;;;26.35;;
29236;SDS011;16266;50.866;4.398;2023-08-21T13:21:35;23.30;;;22.42;;
29236;SDS011;16266;50.866;4.398;2023-08-21T13:24:00;24.33;;;23.48;;
29236;SDS011;16266;50.866;4.398;2023-08-21T13:26:26;25.25;;;24.17;;
29236;SDS011;16266;50.866;4.398;2023-08-21T13:28:54;19.85;;;19.25;;
29236;SDS011;16266;50.866;4.398;2023-08-21T13:31:20;20.13;;;19.42;;
29236;SDS011;16266;50.866;4.398;2023-08-21T13:36:12;19.50;;;18.90;;
29236;SDS011;16266;50.866;4.398;2023-08-21T13:38:38;17.92;;;17.33;;
29236;SDS011;16266;50.866;4.398;2023-08-21T13:41:04;16.58;;;16.08;;
29236;SDS011;16266;50.866;4.398;2023-08-21T13:43:30;24.83;;;23.88;;
29236;SDS011;16266;50.866;4.398;2023-08-21T13:45:56;21.63;;;20.73;;
29236;SDS011;16266;50.866;4.398;2023-08-21T13:48:22;24.50;;;23.65;;
29236;SDS011;16266;50.866;4.398;2023-08-21T13:50:47;22.88;;;22.17;;
29236;SDS011;16266;50.866;4.398;2023-08-21T13:53:13;26.48;;;25.38;;
29236;SDS011;16266;50.866;4.398;2023-08-21T13:55:40;23.13;;;22.25;;
29236;SDS011;16266;50.866;4.398;2023-08-21T13:58:05;24.30;;;23.48;;
29236;SDS011;16266;50.866;4.398;2023-08-21T14:00:31;22.67;;;21.98;;
29236;SDS011;16266;50.866;4.398;2023-08-21T14:02:57;25.50;;;24.60;;
29236;SDS011;16266;50.866;4.398;2023-08-21T14:05:23;23.20;;;22.40;;
29236;SDS011;16266;50.866;4.398;2023-08-21T14:07:51;20.58;;;19.88;;
29236;SDS011;16266;50.866;4.398;2023-08-21T14:10:16;22.92;;;22.13;;
29236;SDS011;16266;50.866;4.398;2023-08-21T14:12:42;21.02;;;20.13;;
29236;SDS011;16266;50.866;4.398;2023-08-21T14:15:08;20.15;;;19.45;;
29236;SDS011;16266;50.866;4.398;2023-08-21T14:17:34;19.50;;;18.80;;
29236;SDS011;16266;50.866;4.398;2023-08-21T14:20:00;16.75;;;16.10;;
29236;SDS011;16266;50.866;4.398;2023-08-21T14:22:26;13.82;;;13.32;;
29236;SDS011;16266;50.866;4.398;2023-08-21T14:24:51;14.35;;;13.93;;